createdAt,value
2019-05-01T00:00:33.445Z,101652.38
2019-05-01T00:03:21.606Z,101648.34
2019-05-01T00:05:55.069Z,101651.42
2019-05-01T00:08:24.018Z,101650.48
2019-05-01T00:10:53.083Z,101646.13
2019-05-01T00:13:22.145Z,101643.14
2019-05-01T00:15:51.732Z,101637.42
2019-05-01T00:18:20.923Z,101640.53
2019-05-01T00:20:50.114Z,101642.29
2019-05-01T00:23:19.176Z,101642.24
2019-05-01T00:25:48.559Z,101632.48
2019-05-01T00:28:18.800Z,101635.95
2019-05-01T00:30:47.784Z,101626.27
2019-05-01T00:33:16.866Z,101632.42
2019-05-01T00:35:46.365Z,101627.97
2019-05-01T00:38:15.514Z,101623.05
2019-05-01T00:40:44.553Z,101623.53
2019-05-01T00:43:14.028Z,101613.88
2019-05-01T00:45:44.197Z,101616.96
2019-05-01T00:48:13.475Z,101610.22
2019-05-01T00:54:16.627Z,101613.84
2019-05-01T00:57:11.324Z,101607.67
2019-05-01T00:59:52.514Z,101595.72
2019-05-01T01:02:30.957Z,101600.27
2019-05-01T01:05:00.109Z,101597.63
2019-05-01T01:07:29.327Z,101601.20
2019-05-01T01:09:58.444Z,101596.41
2019-05-01T01:12:27.805Z,101594.58
2019-05-01T01:14:57.344Z,101596.41
2019-05-01T01:17:26.380Z,101593.34
2019-05-01T01:19:55.682Z,101589.81
2019-05-01T01:22:25.141Z,101588.43
2019-05-01T01:24:54.575Z,101590.58
2019-05-01T01:27:24.594Z,101583.98
2019-05-01T01:29:54.122Z,101585.34
2019-05-01T01:32:23.772Z,101586.70
2019-05-01T01:34:53.227Z,101584.06
2019-05-01T01:37:22.734Z,101581.46
2019-05-01T01:39:52.014Z,101581.53
2019-05-01T01:42:21.768Z,101576.64
2019-05-01T01:45:00.109Z,101573.16
2019-05-01T01:47:29.435Z,101578.39
2019-05-01T01:50:01.693Z,101576.64
2019-05-01T01:52:31.278Z,101564.20
2019-05-01T01:55:00.592Z,101565.44
2019-05-01T01:57:30.513Z,101563.29
2019-05-01T01:59:59.973Z,101555.28
2019-05-01T02:02:38.522Z,101550.80
2019-05-01T02:05:16.504Z,101548.57
2019-05-01T02:07:45.952Z,101544.55
2019-05-01T02:10:15.585Z,101542.69
2019-05-01T02:12:44.944Z,101540.09
2019-05-01T02:15:15.253Z,101531.66
2019-05-01T02:17:44.500Z,101534.31
2019-05-01T02:20:13.916Z,101528.59
2019-05-01T02:22:43.577Z,101525.50
2019-05-01T02:25:13.689Z,101528.19
2019-05-01T02:27:51.567Z,101525.48
2019-05-01T02:30:22.791Z,101516.16
2019-05-01T02:32:53.603Z,101518.85
2019-05-01T02:35:25.527Z,101511.75
2019-05-01T02:37:56.153Z,101511.32
2019-05-01T02:40:58.129Z,101516.22
2019-05-01T02:43:30.856Z,101515.73
2019-05-01T02:46:03.182Z,101508.18
2019-05-01T02:48:38.417Z,101507.30
2019-05-01T02:51:08.842Z,101506.42
2019-05-01T02:53:41.214Z,101506.00
2019-05-01T02:56:18.210Z,101507.33
2019-05-01T02:58:50.437Z,101503.43
2019-05-01T03:01:20.646Z,101507.84
2019-05-01T03:03:53.585Z,101506.06
2019-05-01T03:06:25.062Z,101502.47
2019-05-01T03:08:56.872Z,101504.31
2019-05-01T03:11:26.610Z,101500.34
2019-05-01T03:13:59.228Z,101497.66
2019-05-01T03:16:35.368Z,101498.08
2019-05-01T03:19:09.333Z,101495.02
2019-05-01T03:21:59.518Z,101487.95
2019-05-01T03:24:29.451Z,101484.86
2019-05-01T03:27:04.554Z,101483.90
2019-05-01T03:29:34.327Z,101483.81
2019-05-01T03:32:16.757Z,101485.69
2019-05-01T03:34:34.963Z,101483.02
2019-05-01T03:37:06.976Z,101484.80
2019-05-01T03:39:36.730Z,101475.06
2019-05-01T03:42:07.224Z,101478.16
2019-05-01T03:44:37.653Z,101472.84
2019-05-01T03:47:08.334Z,101475.92
2019-05-01T03:49:37.712Z,101474.98
2019-05-01T03:52:07.218Z,101468.75
2019-05-01T03:54:36.561Z,101475.38
2019-05-01T03:57:06.066Z,101471.87
2019-05-01T03:59:37.521Z,101471.87
2019-05-01T04:02:33.407Z,101469.27
2019-05-01T04:05:01.349Z,101471.50
2019-05-01T04:07:36.287Z,101472.31
2019-05-01T04:10:05.002Z,101469.66
2019-05-01T04:12:34.184Z,101459.44
2019-05-01T04:15:03.480Z,101465.27
2019-05-01T04:17:42.735Z,101468.41
2019-05-01T04:20:14.536Z,101464.91
2019-05-01T04:22:45.691Z,101475.92
2019-05-01T04:25:18.934Z,101461.73
2019-05-01T04:27:53.075Z,101470.63
2019-05-01T04:30:32.250Z,101472.38
2019-05-01T04:33:06.721Z,101466.19
2019-05-01T04:35:53.466Z,101468.88
2019-05-01T04:38:30.363Z,101467.11
2019-05-01T04:41:02.679Z,101463.13
2019-05-01T04:43:34.050Z,101464.45
2019-05-01T04:46:06.038Z,101458.77
2019-05-01T04:48:38.826Z,101464.48
2019-05-01T04:51:08.259Z,101466.69
2019-05-01T04:53:38.373Z,101468.53
2019-05-01T04:56:08.994Z,101468.56
2019-05-01T04:58:38.515Z,101471.25
2019-05-01T05:01:08.241Z,101472.09
2019-05-01T05:03:40.461Z,101472.55
2019-05-01T05:06:11.854Z,101464.94
2019-05-01T05:08:41.665Z,101469.41
2019-05-01T05:11:16.740Z,101466.33
2019-05-01T05:14:05.997Z,101467.14
2019-05-01T05:16:54.347Z,101463.58
2019-05-01T05:19:31.909Z,101472.44
2019-05-01T05:22:05.092Z,101477.76
2019-05-01T05:24:34.905Z,101473.41
2019-05-01T05:27:05.146Z,101469.41
2019-05-01T05:29:36.943Z,101467.56
2019-05-01T05:32:13.896Z,101470.23
2019-05-01T05:34:45.639Z,101471.92
2019-05-01T05:37:21.892Z,101467.48
2019-05-01T05:39:53.988Z,101459.95
2019-05-01T05:42:27.211Z,101465.22
2019-05-01T05:44:57.093Z,101459.39
2019-05-01T05:47:26.716Z,101466.01
2019-05-01T05:49:57.121Z,101462.86
2019-05-01T05:52:49.053Z,101455.70
2019-05-01T05:55:29.308Z,101456.94
2019-05-01T05:58:18.808Z,101448.95
2019-05-01T06:01:08.355Z,101447.12
2019-05-01T06:03:59.979Z,101457.67
2019-05-01T06:07:09.465Z,101439.55
2019-05-01T06:09:48.460Z,101445.79
2019-05-01T06:12:41.831Z,101443.52
2019-05-01T06:15:32.373Z,101444.76
2019-05-01T06:18:14.000Z,101443.40
2019-05-01T06:21:09.054Z,101439.83
2019-05-01T06:23:57.722Z,101445.55
2019-05-01T06:26:32.098Z,101448.20
2019-05-01T06:29:02.166Z,101447.30
2019-05-01T06:31:32.130Z,101449.48
2019-05-01T06:34:02.181Z,101444.16
2019-05-01T06:36:34.987Z,101442.34
2019-05-01T06:39:11.837Z,101435.62
2019-05-01T06:41:44.224Z,101439.61
2019-05-01T06:44:33.500Z,101447.14
2019-05-01T06:47:20.842Z,101434.71
2019-05-01T06:50:05.774Z,101435.74
2019-05-01T06:52:34.857Z,101438.77
2019-05-01T06:55:04.130Z,101439.61
2019-05-01T06:57:38.443Z,101432.92
2019-05-01T07:00:09.323Z,101436.02
2019-05-01T07:02:38.929Z,101430.27
2019-05-01T07:05:14.437Z,101433.44
2019-05-01T07:07:43.132Z,101431.69
2019-05-01T07:10:11.157Z,101437.92
2019-05-01T07:12:41.004Z,101436.17
2019-05-01T07:15:10.571Z,101440.61
2019-05-01T07:17:43.807Z,101430.84
2019-05-01T07:20:36.032Z,101435.29
2019-05-01T07:23:06.263Z,101429.52
2019-05-01T07:25:39.358Z,101437.05
2019-05-01T07:28:06.829Z,101430.00
2019-05-01T07:30:41.669Z,101428.76
2019-05-01T07:33:11.910Z,101425.19
2019-05-01T07:35:43.106Z,101428.36
2019-05-01T07:38:12.540Z,101428.67
2019-05-01T07:40:42.107Z,101429.84
2019-05-01T07:43:23.892Z,101426.11
2019-05-01T07:46:13.786Z,101428.62
2019-05-01T07:48:43.610Z,101419.66
2019-05-01T07:51:12.989Z,101428.39
2019-05-01T07:53:42.805Z,101426.67
2019-05-01T07:56:12.593Z,101422.32
2019-05-01T07:58:42.181Z,101425.80
2019-05-01T08:01:22.060Z,101423.69
2019-05-01T08:03:51.404Z,101429.86
2019-05-01T08:06:22.771Z,101432.19
2019-05-01T08:08:56.027Z,101443.94
2019-05-01T08:11:25.696Z,101438.55
2019-05-01T08:14:07.047Z,101405.23
2019-05-01T08:16:26.612Z,101442.52
2019-05-01T08:19:04.085Z,101431.89
2019-05-01T08:22:05.092Z,101432.87
2019-05-01T08:24:34.578Z,101428.02
2019-05-01T08:27:03.760Z,101433.48
2019-05-01T08:29:58.580Z,101432.66
2019-05-01T08:32:40.792Z,101434.84
2019-05-01T08:35:10.734Z,101432.50
2019-05-01T08:37:42.669Z,101436.89
2019-05-01T08:40:15.812Z,101439.88
2019-05-01T08:42:44.240Z,101443.42
2019-05-01T08:45:35.909Z,101434.95
2019-05-01T08:48:21.210Z,101432.73
2019-05-01T08:50:54.635Z,101441.15
2019-05-01T08:53:23.258Z,101434.40
2019-05-01T08:55:53.534Z,101439.69
2019-05-01T08:58:23.688Z,101435.54
2019-05-01T09:00:57.023Z,101434.23
2019-05-01T09:03:27.340Z,101439.23
2019-05-01T09:05:59.948Z,101433.03
2019-05-01T09:08:33.357Z,101432.97
2019-05-01T09:14:21.999Z,101432.81
2019-05-01T09:17:00.399Z,101429.27
2019-05-01T09:19:28.880Z,101430.09
2019-05-01T09:21:58.762Z,101421.31
2019-05-01T09:24:29.550Z,101432.39
2019-05-01T09:27:18.803Z,101429.27
2019-05-01T09:29:54.810Z,101424.86
2019-05-01T09:32:28.264Z,101427.94
2019-05-01T09:35:14.592Z,101419.44
2019-05-01T09:37:33.202Z,101422.06
2019-05-01T09:40:04.201Z,101422.52
2019-05-01T09:42:34.110Z,101425.63
2019-05-01T09:45:04.623Z,101425.93
2019-05-01T09:47:35.121Z,101424.53
2019-05-01T09:50:05.546Z,101426.22
2019-05-01T09:52:43.236Z,101421.38
2019-05-01T09:55:23.069Z,101419.63
2019-05-01T09:57:52.679Z,101425.86
2019-05-01T10:00:33.401Z,101425.44
2019-05-01T10:03:02.874Z,101427.64
2019-05-01T10:05:38.113Z,101425.44
2019-05-01T10:08:07.030Z,101423.97
2019-05-01T10:10:38.531Z,101428.36
2019-05-01T10:13:09.434Z,101418.94
2019-05-01T10:15:39.144Z,101427.34
2019-05-01T10:18:15.996Z,101420.27
2019-05-01T10:21:08.697Z,101417.53
2019-05-01T10:25:08.565Z,101421.43
2019-05-01T10:26:45.887Z,101424.59
2019-05-01T10:29:49.931Z,101417.66
2019-05-01T10:32:27.667Z,101405.63
2019-05-01T10:35:22.324Z,101414.61
2019-05-01T10:37:52.339Z,101417.34
2019-05-01T10:40:22.410Z,101410.68
2019-05-01T10:42:53.193Z,101407.20
2019-05-01T10:45:23.442Z,101411.62
2019-05-01T10:48:02.573Z,101403.98
2019-05-01T10:50:39.318Z,101405.24
2019-05-01T10:53:09.193Z,101407.09
2019-05-01T10:55:58.976Z,101395.34
2019-05-01T10:58:32.221Z,101397.02
2019-05-01T11:01:19.535Z,101385.09
2019-05-01T11:03:53.601Z,101384.38
2019-05-01T11:06:34.918Z,101389.34
2019-05-01T11:09:19.800Z,101385.95
2019-05-01T11:11:45.236Z,101386.86
2019-05-01T11:14:19.947Z,101384.46
2019-05-01T11:19:48.668Z,101383.28
2019-05-01T11:22:29.032Z,101379.24
2019-05-01T11:25:02.610Z,101377.03
2019-05-01T11:27:52.366Z,101377.91
2019-05-01T11:30:19.137Z,101377.80
2019-05-01T11:33:02.967Z,101376.12
2019-05-01T11:36:08.875Z,101376.20
2019-05-01T11:38:46.969Z,101375.89
2019-05-01T11:41:25.052Z,101365.41
2019-05-01T11:44:03.559Z,101371.47
2019-05-01T11:46:40.632Z,101379.42
2019-05-01T11:51:01.692Z,101372.80
2019-05-01T11:52:39.965Z,101376.98
2019-05-01T11:58:26.682Z,101366.33
2019-05-01T12:01:04.837Z,101366.05
2019-05-01T12:03:34.031Z,101369.55
2019-05-01T12:06:03.426Z,101361.10
2019-05-01T12:08:37.846Z,101361.59
2019-05-01T12:11:12.162Z,101371.92
2019-05-01T12:13:48.530Z,101365.44
2019-05-01T12:16:41.876Z,101364.41
2019-05-01T12:19:12.251Z,101363.77
2019-05-01T12:21:41.784Z,101362.36
2019-05-01T12:24:12.555Z,101359.89
2019-05-01T12:26:50.802Z,101357.53
2019-05-01T12:29:42.507Z,101354.86
2019-05-01T12:32:35.758Z,101361.95
2019-05-01T12:35:06.715Z,101349.03
2019-05-01T12:37:56.522Z,101349.64
2019-05-01T12:43:33.622Z,101349.03
2019-05-01T12:49:43.370Z,101340.45
2019-05-01T12:52:18.174Z,101340.67
2019-05-01T12:54:56.714Z,101345.59
2019-05-01T12:57:26.829Z,101344.25
2019-05-01T13:00:08.190Z,101339.03
2019-05-01T13:02:37.131Z,101335.49
2019-05-01T13:05:07.071Z,101339.49
2019-05-01T13:07:36.795Z,101332.25
2019-05-01T13:10:06.457Z,101256.80
2019-05-01T13:12:36.192Z,101334.44
2019-05-01T13:15:08.058Z,101325.44
2019-05-01T13:17:37.553Z,101332.77
2019-05-01T13:20:07.205Z,101325.52
2019-05-01T13:22:36.776Z,101330.25
2019-05-01T13:25:06.399Z,101325.37
2019-05-01T13:27:43.093Z,101320.72
2019-05-01T13:30:25.535Z,101326.77
2019-05-01T13:32:55.195Z,101319.22
2019-05-01T13:35:30.459Z,101320.76
2019-05-01T13:37:59.104Z,101317.49
2019-05-01T13:40:28.383Z,101314.08
2019-05-01T13:43:03.883Z,101307.61
2019-05-01T13:45:33.330Z,101175.55
2019-05-01T13:48:02.790Z,101308.59
2019-05-01T13:50:32.108Z,101307.98
2019-05-01T13:53:01.898Z,101293.57
2019-05-01T13:55:31.755Z,101268.84
2019-05-01T13:58:01.156Z,101283.69
2019-05-01T14:00:34.451Z,101287.74
2019-05-01T14:03:04.640Z,101284.61
2019-05-01T14:05:36.172Z,101284.86
2019-05-01T14:08:32.839Z,101276.81
2019-05-01T14:11:16.579Z,101284.36
2019-05-01T14:13:49.382Z,101276.73
2019-05-01T14:16:19.103Z,101285.28
2019-05-01T14:18:49.336Z,101283.53
2019-05-01T14:21:32.583Z,101281.07
2019-05-01T14:24:26.209Z,101275.31
2019-05-01T14:26:55.742Z,101281.06
2019-05-01T14:29:25.331Z,101280.81
2019-05-01T14:31:56.182Z,101284.89
2019-05-01T14:34:25.836Z,101277.97
2019-05-01T14:37:00.622Z,101273.09
2019-05-01T14:43:53.290Z,101264.13
2019-05-01T14:46:23.966Z,101265.54
2019-05-01T14:48:53.544Z,101257.55
2019-05-01T14:51:31.222Z,101259.29
2019-05-01T14:54:01.582Z,101256.17
2019-05-01T14:56:37.680Z,101259.20
2019-05-01T14:59:13.584Z,101263.63
2019-05-01T15:01:47.414Z,101261.88
2019-05-01T15:04:49.369Z,101257.95
2019-05-01T15:07:42.837Z,101256.73
2019-05-01T15:10:09.370Z,101250.27
2019-05-01T15:12:46.914Z,101259.98
2019-05-01T15:15:50.049Z,101247.53
2019-05-01T15:18:50.971Z,101249.33
2019-05-01T15:21:57.663Z,101238.36
2019-05-01T15:24:44.364Z,101238.48
2019-05-01T15:27:16.823Z,101243.84
2019-05-01T15:29:46.671Z,101239.67
2019-05-01T15:32:16.040Z,101235.37
2019-05-01T15:34:45.492Z,101231.98
2019-05-01T15:37:16.630Z,101237.81
2019-05-01T15:39:52.300Z,101235.69
2019-05-01T15:42:30.311Z,101230.92
2019-05-01T15:45:00.098Z,101235.07
2019-05-01T15:47:29.351Z,101228.53
2019-05-01T16:19:46.880Z,101216.56
2019-05-01T16:23:26.511Z,101217.86
2019-05-01T16:30:36.342Z,101208.27
2019-05-01T16:36:08.649Z,101201.45
2019-05-01T16:38:57.647Z,101205.89
2019-05-01T16:41:26.628Z,101203.72
2019-05-01T16:44:40.714Z,101199.34
2019-05-01T16:47:10.812Z,101193.71
2019-05-01T16:49:46.116Z,101199.25
2019-05-01T16:52:21.668Z,101196.13
2019-05-01T16:54:59.360Z,101189.94
2019-05-01T16:57:26.603Z,101188.71
2019-05-01T17:00:21.692Z,101186.05
2019-05-01T17:03:13.158Z,101188.78
2019-05-01T17:06:13.717Z,101182.66
2019-05-01T17:09:01.018Z,101181.74
2019-05-01T17:11:34.472Z,101173.80
2019-05-01T17:14:05.623Z,101169.35
2019-05-01T17:16:38.793Z,101167.11
2019-05-01T17:19:09.088Z,101168.44
2019-05-01T17:21:43.323Z,101176.53
2019-05-01T17:24:15.478Z,101168.16
2019-05-01T17:26:53.622Z,101172.19
2019-05-01T17:29:25.675Z,101166.55
2019-05-01T17:31:56.143Z,101171.59
2019-05-01T17:34:39.739Z,101166.02
2019-05-01T17:37:24.831Z,101168.72
2019-05-01T17:40:10.042Z,101167.06
2019-05-01T17:42:42.986Z,101158.67
2019-05-01T17:45:15.446Z,101155.14
2019-05-01T17:47:59.925Z,101159.58
2019-05-01T17:50:32.252Z,101145.41
2019-05-01T17:53:22.013Z,101150.27
2019-05-01T17:55:52.122Z,101144.11
2019-05-01T17:58:25.977Z,101143.72
2019-05-01T18:01:52.419Z,101134.97
2019-05-01T18:04:33.166Z,101135.42
2019-05-01T18:07:04.011Z,101138.96
2019-05-01T18:09:35.573Z,101133.19
2019-05-01T18:12:06.279Z,101139.06
2019-05-01T18:14:37.484Z,101138.22
2019-05-01T18:17:07.989Z,101134.23
2019-05-01T18:19:38.285Z,101132.94
2019-05-01T18:22:17.482Z,101135.17
2019-05-01T18:25:19.180Z,101139.69
2019-05-01T18:28:11.254Z,101135.73
2019-05-01T18:30:43.518Z,101130.41
2019-05-01T18:33:25.925Z,101132.20
2019-05-01T18:35:56.025Z,101132.66
2019-05-01T18:38:49.106Z,101125.59
2019-05-01T18:41:33.546Z,101133.66
2019-05-01T18:44:05.262Z,101127.50
2019-05-01T18:46:34.224Z,101121.31
2019-05-01T18:49:04.220Z,101119.56
2019-05-01T18:51:36.236Z,101120.86
2019-05-01T18:54:06.435Z,101113.86
2019-05-01T18:56:38.246Z,101118.30
2019-05-01T18:59:09.060Z,101118.78
2019-05-01T19:01:43.894Z,101112.88
2019-05-01T19:04:24.744Z,101114.20
2019-05-01T19:06:58.920Z,101107.66
2019-05-01T19:09:30.447Z,101106.41
2019-05-01T19:12:07.607Z,101104.16
2019-05-01T19:14:38.882Z,101102.87
2019-05-01T19:17:08.591Z,101097.69
2019-05-01T19:19:39.222Z,101100.34
2019-05-01T19:22:09.550Z,101102.55
2019-05-01T19:24:40.159Z,101089.29
2019-05-01T19:27:09.930Z,101091.95
2019-05-01T19:29:40.048Z,101095.94
2019-05-01T19:32:10.062Z,101095.62
2019-05-01T19:34:43.155Z,101098.73
2019-05-01T19:37:16.462Z,101088.55
2019-05-01T19:39:51.827Z,101077.50
2019-05-01T19:42:21.560Z,101083.27
2019-05-01T19:44:50.942Z,101084.63
2019-05-01T19:47:20.740Z,101079.31
2019-05-01T19:49:54.608Z,101078.44
2019-05-01T19:52:24.550Z,101071.34
2019-05-01T19:54:54.068Z,101069.23
2019-05-01T19:57:23.907Z,101061.30
2019-05-01T19:59:53.565Z,101065.28
2019-05-01T20:02:24.072Z,101060.91
2019-05-01T20:04:53.868Z,101060.45
2019-05-01T20:07:24.037Z,101056.02
2019-05-01T20:09:56.970Z,101056.47
2019-05-01T20:12:25.280Z,101059.58
2019-05-01T20:14:54.852Z,101057.80
2019-05-01T20:17:24.584Z,101063.22
2019-05-01T20:19:54.039Z,101056.57
2019-05-01T20:22:23.451Z,101059.23
2019-05-01T20:24:52.963Z,101057.45
2019-05-01T20:27:22.860Z,101063.22
2019-05-01T20:29:52.473Z,101050.00
2019-05-01T20:32:26.169Z,101044.30
2019-05-01T20:34:59.061Z,101042.58
2019-05-01T20:37:27.274Z,101046.53
2019-05-01T20:40:09.804Z,101042.09
2019-05-01T20:42:29.803Z,101040.86
2019-05-01T20:45:05.362Z,101036.94
2019-05-01T20:47:35.183Z,101033.90
2019-05-01T20:50:00.798Z,101037.43
2019-05-01T20:52:29.929Z,101033.97
2019-05-01T20:55:01.136Z,101031.27
2019-05-01T20:57:34.256Z,101028.16
2019-05-01T21:00:04.299Z,101025.19
2019-05-01T21:02:33.502Z,101022.56
2019-05-01T21:05:23.802Z,101011.20
2019-05-01T21:08:12.231Z,101014.73
2019-05-01T21:10:50.524Z,101014.76
2019-05-01T21:13:23.036Z,101009.41
2019-05-01T21:15:51.124Z,101010.67
2019-05-01T21:18:20.824Z,101008.53
2019-05-01T21:20:51.270Z,101012.42
2019-05-01T21:23:20.351Z,100999.66
2019-05-01T21:25:53.835Z,101003.58
2019-05-01T21:28:23.991Z,101002.25
2019-05-01T21:30:54.375Z,100998.69
2019-05-01T21:33:24.010Z,100997.03
2019-05-01T21:35:53.410Z,100992.63
2019-05-01T21:38:26.880Z,100985.61
2019-05-01T21:40:56.453Z,100987.35
2019-05-01T21:43:27.828Z,100981.69
2019-05-01T21:45:57.252Z,100975.86
2019-05-01T21:48:29.691Z,100980.30
2019-05-01T21:51:03.424Z,100975.98
2019-05-01T21:53:37.196Z,100968.89
2019-05-01T21:56:06.032Z,100967.59
2019-05-01T21:58:33.970Z,100968.89
2019-05-01T22:01:06.847Z,100968.89
2019-05-01T22:03:36.215Z,100962.73
2019-05-01T22:06:11.240Z,100960.61
2019-05-01T22:08:41.106Z,100954.88
2019-05-01T22:11:10.798Z,100953.97
2019-05-01T22:13:39.892Z,100949.05
2019-05-01T22:16:18.460Z,100944.25
2019-05-01T22:18:51.530Z,100948.72
2019-05-01T22:21:32.749Z,100944.84
2019-05-01T22:24:22.339Z,100940.38
2019-05-01T22:27:01.498Z,100943.90
2019-05-01T22:29:35.755Z,100946.55
2019-05-01T22:32:15.787Z,100940.79
2019-05-01T22:34:52.442Z,100942.57
2019-05-01T22:37:23.774Z,100927.65
2019-05-01T22:39:59.663Z,100928.97
2019-05-01T22:42:28.836Z,100932.92
2019-05-01T22:44:58.147Z,100923.70
2019-05-01T22:47:27.375Z,100921.17
2019-05-01T22:49:56.805Z,100916.32
2019-05-01T22:52:26.337Z,100843.06
2019-05-01T22:54:56.117Z,100911.05
2019-05-01T22:57:25.624Z,100912.89
2019-05-01T22:59:55.100Z,100909.30
2019-05-01T23:02:30.956Z,100904.92
2019-05-01T23:05:00.500Z,100902.30
2019-05-01T23:07:29.875Z,100896.54
2019-05-01T23:10:03.250Z,100893.36
2019-05-01T23:12:30.339Z,100890.67
2019-05-01T23:15:00.339Z,100890.67
2019-05-01T23:17:39.817Z,100885.41
2019-05-01T23:20:10.678Z,100874.78
2019-05-01T23:22:40.010Z,100869.08
2019-05-01T23:25:09.439Z,100865.97
2019-05-01T23:27:38.945Z,100865.10
2019-05-01T23:30:10.046Z,100852.31
2019-05-01T23:32:39.069Z,100754.37
2019-05-01T23:35:08.735Z,100843.02
2019-05-01T23:37:38.248Z,100843.02
2019-05-01T23:40:10.970Z,100831.95
2019-05-01T23:42:43.315Z,100834.15
2019-05-01T23:45:11.002Z,100824.44
2019-05-01T23:47:40.154Z,100820.53
2019-05-01T23:50:10.495Z,100812.98
2019-05-01T23:52:39.866Z,100815.22
2019-05-01T23:55:12.179Z,100814.84
2019-05-01T23:57:41.935Z,100811.31
